Time;durP1;ratioP1;P1;durP2;ratioP2;P2;SDS_P1;SDS_P2;PMS_P1;PMS_P2;Temp;Humidity;BMP_temperature;BMP_pressure;BME280_temperature;BME280_humidity;BME280_pressure;Samples;Min_cycle;Max_cycle;Signal;HPM_P1;HPM_P2
2022/10/08 00:02:52;;;;;;;;;;;;;;;9.21;100.00;96044.13;10567429;28;2356;-75
2022/10/08 00:07:55;;;;;;;;;;;;;;;9.23;100.00;96035.03;10568947;28;1991;-74
2022/10/08 00:12:58;;;;;;;;;;;;;;;9.25;100.00;96032.91;10555583;28;2412;-74
2022/10/08 00:18:02;;;;;;;;;;;;;;;9.18;100.00;96031.25;10568543;28;2418;-74
2022/10/08 00:23:05;;;;;;;;;;;;;;;9.16;100.00;96025.34;10570891;28;1980;-75
2022/10/08 00:28:08;;;;;;;;;;;;;;;9.16;100.00;96036.06;10560007;28;2021;-76
2022/10/08 00:33:12;;;;;;;;;;;;;;;9.17;100.00;96036.88;10566453;28;2330;-76
2022/10/08 00:38:16;;;;;;;;;;;;;;;9.20;100.00;96026.41;10562456;28;1912;-74
2022/10/08 00:43:19;;;;;;;;;;;;;;;9.23;100.00;96030.47;10563656;28;2334;-74
2022/10/08 00:48:28;;;;;;;;;;;;;;;9.20;100.00;96025.63;10568538;28;2288;-74
2022/10/08 00:53:32;;;;;;;;;;;;;;;9.17;100.00;96013.53;10560516;28;2361;-74
2022/10/08 00:58:35;;;;;;;;;;;;;;;9.15;100.00;96018.34;10567375;28;2326;-75
2022/10/08 01:03:39;;;;;;;;;;;;;;;9.11;100.00;96017.25;10566455;28;1972;-74
2022/10/08 01:08:42;;;;;;;;;;;;;;;9.15;100.00;96007.59;10568183;28;1954;-76
2022/10/08 01:13:45;;;;;;;;;;;;;;;9.12;100.00;96005.47;10562825;28;2735;-78
2022/10/08 01:18:49;;;;;;;;;;;;;;;9.13;100.00;95999.03;10562464;28;2397;-75
2022/10/08 01:23:52;;;;;;;;;;;;;;;9.10;100.00;95996.06;10554338;28;2152;-76
2022/10/08 01:28:56;;;;;;;;;;;;;;;9.14;100.00;95989.91;10559152;28;2378;-74
2022/10/08 01:33:59;;;;;;;;;;;;;;;9.23;100.00;95997.50;10539072;28;1956;-74
2022/10/08 01:39:04;;;;;;;;;;;;;;;9.16;100.00;95986.97;10557834;28;2273;-74
2022/10/08 01:44:08;;;;;;;;;;;;;;;9.17;100.00;95984.03;10558767;28;2319;-74
2022/10/08 01:49:11;;;;;;;;;;;;;;;9.22;100.00;95983.25;10562252;28;1940;-74
2022/10/08 01:54:15;;;;;;;;;;;;;;;9.27;100.00;95987.84;10557811;28;2379;-73
2022/10/08 01:59:18;;;;;;;;;;;;;;;9.25;100.00;95979.25;10566288;28;2356;-75
2022/10/08 02:04:34;;;;;;;;;;;;;;;9.34;100.00;95983.84;10554262;28;2026;-75
2022/10/08 02:09:37;;;;;;;;;;;;;;;9.35;100.00;95981.97;10561228;28;2302;-75
2022/10/08 02:14:41;;;;;;;;;;;;;;;9.38;100.00;95974.22;10554536;28;2359;-75
2022/10/08 02:19:44;;;;;;;;;;;;;;;9.39;100.00;95972.34;10562448;28;1956;-72
2022/10/08 02:24:48;;;;;;;;;;;;;;;9.38;100.00;95962.69;10556126;28;1952;-75
2022/10/08 02:29:51;;;;;;;;;;;;;;;9.48;100.00;95968.13;10566538;28;1940;-75
2022/10/08 02:34:54;;;;;;;;;;;;;;;9.51;100.00;95969.44;10549888;28;2304;-76
2022/10/08 02:39:59;;;;;;;;;;;;;;;9.52;100.00;95969.19;10549193;28;2364;-77
2022/10/08 02:45:02;;;;;;;;;;;;;;;9.68;100.00;95970.88;10562950;28;2264;-75
2022/10/08 02:50:07;;;;;;;;;;;;;;;9.66;100.00;95966.81;10564983;28;2447;-76
2022/10/08 02:55:10;;;;;;;;;;;;;;;9.60;100.00;95971.34;10572149;28;2412;-75
2022/10/08 03:00:13;;;;;;;;;;;;;;;9.72;100.00;95973.81;10576194;28;1943;-74
2022/10/08 03:05:17;;;;;;;;;;;;;;;9.76;100.00;95974.91;10553201;28;2319;-74
2022/10/08 03:10:24;;;;;;;;;;;;;;;9.72;100.00;95971.94;10566638;28;2410;-75
2022/10/08 03:15:28;;;;;;;;;;;;;;;9.82;100.00;95967.69;10568414;28;2325;-74
2022/10/08 03:20:31;;;;;;;;;;;;;;;9.86;100.00;95972.28;10559453;28;2342;-75
2022/10/08 03:25:35;;;;;;;;;;;;;;;9.88;100.00;95972.00;10565087;28;1997;-73
2022/10/08 03:30:38;;;;;;;;;;;;;;;9.79;100.00;95968.19;10567565;28;2841;-74
2022/10/08 03:35:41;;;;;;;;;;;;;;;9.81;100.00;95966.88;10560348;28;2272;-75
2022/10/08 03:40:45;;;;;;;;;;;;;;;9.86;100.00;95968.75;10563902;28;1924;-75
2022/10/08 03:45:48;;;;;;;;;;;;;;;9.84;100.00;95981.66;10566549;28;1968;-74
2022/10/08 03:50:51;;;;;;;;;;;;;;;9.96;100.00;95974.19;10566802;28;2187;-74
2022/10/08 03:55:54;;;;;;;;;;;;;;;10.05;100.00;95977.94;10554560;28;2329;-74
2022/10/08 04:00:58;;;;;;;;;;;;;;;10.21;100.00;95970.75;10572326;28;2044;-75
2022/10/08 04:06:01;;;;;;;;;;;;;;;10.43;100.00;95973.22;10574329;28;1985;-75
2022/10/08 04:11:04;;;;;;;;;;;;;;;10.60;100.00;95968.38;10566114;28;2806;-75
2022/10/08 04:16:07;;;;;;;;;;;;;;;10.72;100.00;95971.63;10563970;28;2331;-74
2022/10/08 04:21:11;;;;;;;;;;;;;;;10.83;100.00;95969.75;10571076;28;2358;-72
2022/10/08 04:26:14;;;;;;;;;;;;;;;10.90;100.00;95972.97;10554344;28;2063;-75
2022/10/08 04:31:18;;;;;;;;;;;;;;;11.02;100.00;95970.78;10571812;28;1920;-76
2022/10/08 04:36:23;;;;;;;;;;;;;;;11.06;100.00;95968.34;10559265;28;2305;-76
2022/10/08 04:41:26;;;;;;;;;;;;;;;11.13;100.00;95971.56;10565320;28;2691;-75
2022/10/08 04:46:29;;;;;;;;;;;;;;;11.23;100.00;95971.56;10562179;28;2345;-74
2022/10/08 04:51:33;;;;;;;;;;;;;;;11.30;100.00;95977.47;10567882;28;2338;-79
2022/10/08 04:56:36;;;;;;;;;;;;;;;11.45;100.00;95983.88;10563201;28;2349;-74
2022/10/08 05:01:40;;;;;;;;;;;;;;;11.46;100.00;95975.53;10571194;28;2392;-74
2022/10/08 05:06:43;;;;;;;;;;;;;;;11.47;100.00;95982.53;10565102;28;2669;-74
2022/10/08 05:11:46;;;;;;;;;;;;;;;11.60;100.00;95981.16;10552819;28;2372;-78
2022/10/08 05:16:49;;;;;;;;;;;;;;;11.67;100.00;95984.34;10572726;28;1960;-74
2022/10/08 05:21:53;;;;;;;;;;;;;;;11.69;100.00;95984.88;10560479;28;2299;-74
2022/10/08 05:26:56;;;;;;;;;;;;;;;11.74;100.00;95984.84;10549854;28;2337;-74
2022/10/08 05:32:01;;;;;;;;;;;;;;;11.69;100.00;95995.66;10567082;28;2309;-74
2022/10/08 05:37:04;;;;;;;;;;;;;;;11.75;100.00;95999.13;10547850;28;2296;-74
2022/10/08 05:42:08;;;;;;;;;;;;;;;11.78;100.00;95996.69;10561760;28;1998;-75
2022/10/08 05:47:11;;;;;;;;;;;;;;;11.73;100.00;95996.72;10551125;28;2447;-73
2022/10/08 05:52:14;;;;;;;;;;;;;;;11.70;100.00;96002.63;10569425;28;2025;-76
2022/10/08 05:57:18;;;;;;;;;;;;;;;11.68;100.00;95996.72;10566716;28;2494;-76
2022/10/08 06:02:21;;;;;;;;;;;;;;;11.66;100.00;96017.75;10562648;28;1965;-76
2022/10/08 06:07:25;;;;;;;;;;;;;;;11.70;100.00;96018.78;10557544;28;2101;-76
2022/10/08 06:12:28;;;;;;;;;;;;;;;11.79;100.00;96013.66;10555142;28;2314;-73
2022/10/08 06:17:31;;;;;;;;;;;;;;;11.76;100.00;96017.69;10555853;28;2357;-75
2022/10/08 06:22:34;;;;;;;;;;;;;;;11.86;100.00;96033.06;10553457;28;2333;-76
2022/10/08 06:27:38;;;;;;;;;;;;;;;12.11;100.00;96034.84;10560289;28;1853;-75
2022/10/08 06:32:41;;;;;;;;;;;;;;;12.44;100.00;96036.81;10554179;28;1931;-78
2022/10/08 06:37:45;;;;;;;;;;;;;;;12.93;100.00;96035.97;10552288;28;2024;-74
2022/10/08 06:42:48;;;;;;;;;;;;;;;13.32;100.00;96039.72;10555878;28;2671;-74
2022/10/08 06:47:52;;;;;;;;;;;;;;;13.76;100.00;96037.63;10554400;28;2546;-74
2022/10/08 06:52:55;;;;;;;;;;;;;;;14.10;100.00;96041.31;10564930;28;2560;-74
2022/10/08 06:57:58;;;;;;;;;;;;;;;14.44;100.00;96044.66;10563097;28;2621;-73
2022/10/08 07:03:02;;;;;;;;;;;;;;;14.66;100.00;96038.69;10564109;28;3018;-73
2022/10/08 07:08:05;;;;;;;;;;;;;;;14.69;100.00;96045.41;10570387;28;2562;-73
2022/10/08 07:13:08;;;;;;;;;;;;;;;14.97;100.00;96057.97;10555606;28;2576;-75
2022/10/08 07:18:11;;;;;;;;;;;;;;;15.50;100.00;96041.38;10555066;28;2006;-75
2022/10/08 07:23:15;;;;;;;;;;;;;;;15.92;100.00;96050.41;10547188;28;2058;-74
2022/10/08 07:28:18;;;;;;;;;;;;;;;16.06;100.00;96064.78;10558761;28;2602;-74
2022/10/08 07:33:24;;;;;;;;;;;;;;;16.42;100.00;96064.06;10558099;28;2667;-74
2022/10/08 07:38:27;;;;;;;;;;;;;;;16.74;100.00;96063.13;10566010;28;2514;-73
2022/10/08 07:43:30;;;;;;;;;;;;;;;16.80;100.00;96052.97;10568342;28;2579;-74
2022/10/08 07:48:34;;;;;;;;;;;;;;;16.84;100.00;96062.88;10570232;28;2813;-74
2022/10/08 07:53:38;;;;;;;;;;;;;;;16.91;100.00;96062.47;10562354;28;2581;-74
2022/10/08 07:58:41;;;;;;;;;;;;;;;16.85;100.00;96069.13;10568197;28;2956;-75
2022/10/08 08:03:44;;;;;;;;;;;;;;;17.11;100.00;96064.69;10553688;28;2696;-75
2022/10/08 08:08:48;;;;;;;;;;;;;;;17.14;100.00;96064.09;10552763;28;2636;-73
2022/10/08 08:13:51;;;;;;;;;;;;;;;17.32;100.00;96061.50;10562826;28;2589;-74
2022/10/08 08:18:55;;;;;;;;;;;;;;;17.35;100.00;96074.47;10568462;28;2900;-76
2022/10/08 08:23:58;;;;;;;;;;;;;;;17.22;100.00;96068.78;10559301;28;2593;-74
2022/10/08 08:29:01;;;;;;;;;;;;;;;16.99;100.00;96076.13;10548932;28;2615;-74
2022/10/08 08:34:05;;;;;;;;;;;;;;;17.24;100.00;96066.59;10561594;28;2002;-74
2022/10/08 08:39:09;;;;;;;;;;;;;;;17.09;100.00;96075.06;10562697;28;2621;-75
2022/10/08 08:44:13;;;;;;;;;;;;;;;17.48;100.00;96070.88;10567724;27;2560;-75
2022/10/08 08:49:16;;;;;;;;;;;;;;;17.80;100.00;96076.03;10565143;28;2622;-76
2022/10/08 08:54:21;;;;;;;;;;;;;;;18.18;100.00;96075.56;10559092;28;2607;-74
2022/10/08 08:59:24;;;;;;;;;;;;;;;18.24;100.00;96074.31;10563096;28;2647;-75
2022/10/08 09:04:28;;;;;;;;;;;;;;;18.59;100.00;96077.16;10561594;28;2618;-76
2022/10/08 09:09:32;;;;;;;;;;;;;;;18.51;100.00;96081.47;10558783;28;2018;-75
2022/10/08 09:14:35;;;;;;;;;;;;;;;18.94;100.00;96077.22;10561198;28;1980;-76
2022/10/08 09:19:38;;;;;;;;;;;;;;;19.14;100.00;96082.03;10569960;28;2078;-76
2022/10/08 09:24:41;;;;;;;;;;;;;;;18.95;100.00;96074.16;10557253;28;2653;-75
2022/10/08 09:29:47;;;;;;;;;;;;;;;18.76;100.00;96087.28;10551188;28;2522;-75
2022/10/08 09:34:50;;;;;;;;;;;;;;;18.54;100.00;96086.25;10556468;27;2613;-75
2022/10/08 09:39:53;;;;;;;;;;;;;;;18.80;100.00;96085.53;10560378;28;2705;-76
2022/10/08 09:45:02;;;;;;;;;;;;;;;18.73;100.00;96093.38;10564612;28;2038;-75
2022/10/08 09:50:06;;;;;;;;;;;;;;;18.59;100.00;96082.59;10560253;28;2652;-75
2022/10/08 09:55:10;;;;;;;;;;;;;;;18.88;100.00;96080.09;10559584;28;2710;-74
2022/10/08 10:00:15;;;;;;;;;;;;;;;18.69;100.00;96076.88;10567530;28;2734;-75
2022/10/08 10:05:18;;;;;;;;;;;;;;;18.64;100.00;96085.19;10557057;28;2549;-75
2022/10/08 10:10:22;;;;;;;;;;;;;;;18.50;100.00;96089.94;10545444;28;2633;-75
2022/10/08 10:15:25;;;;;;;;;;;;;;;18.27;100.00;96090.03;10552350;28;2828;-75
2022/10/08 10:20:28;;;;;;;;;;;;;;;18.45;100.00;96092.78;10557603;28;1956;-76
2022/10/08 10:25:31;;;;;;;;;;;;;;;18.40;100.00;96085.59;10565763;28;2684;-75
2022/10/08 10:30:35;;;;;;;;;;;;;;;18.27;100.00;96092.75;10549613;28;2929;-75
2022/10/08 10:35:38;;;;;;;;;;;;;;;18.43;100.00;96086.88;10550893;28;2516;-75
2022/10/08 10:40:42;;;;;;;;;;;;;;;18.42;100.00;96088.00;10557017;28;2606;-76
2022/10/08 10:45:45;;;;;;;;;;;;;;;18.15;100.00;96078.13;10558786;28;1975;-76
2022/10/08 10:50:49;;;;;;;;;;;;;;;18.27;100.00;96073.72;10554106;28;3027;-77
2022/10/08 10:55:52;;;;;;;;;;;;;;;17.92;100.00;96071.94;10555168;28;2562;-75
2022/10/08 11:00:56;;;;;;;;;;;;;;;17.95;100.00;96068.63;10560030;28;2648;-76
2022/10/08 11:06:00;;;;;;;;;;;;;;;17.86;100.00;96070.47;10563984;28;2578;-76
2022/10/08 11:11:03;;;;;;;;;;;;;;;18.14;100.00;96066.47;10559930;28;3038;-76
2022/10/08 11:16:06;;;;;;;;;;;;;;;17.80;100.00;96059.72;10565001;28;2570;-76
2022/10/08 11:21:10;;;;;;;;;;;;;;;17.57;100.00;96069.03;10559227;28;2056;-75
2022/10/08 11:26:12;;;;;;;;;;;18.30;99.90;;;17.42;100.00;96072.13;10573931;28;2674;-76
2022/10/08 11:31:24;;;;;;;;;;;18.10;99.90;;;17.55;100.00;96063.88;10559512;28;2536;-76
2022/10/08 11:36:28;;;;;;;;;;;18.20;99.90;;;17.48;100.00;96068.97;10565743;28;1952;-76
2022/10/08 11:41:34;;;;;;;;;;;18.10;99.90;;;17.11;100.00;96066.63;10575089;28;2609;-76
2022/10/08 11:46:37;;;;;;;;;;;17.90;99.90;;;17.18;100.00;96067.00;10562701;28;2941;-77
2022/10/08 11:51:40;;;;;;;;;;;17.90;99.90;;;17.20;100.00;96053.91;10559991;28;2468;-74
2022/10/08 11:56:42;;;;;;;;;;;17.80;99.90;;;17.12;100.00;96049.22;10550726;28;2009;-76
2022/10/08 12:01:45;;;;;;;;;;;17.90;99.90;;;17.28;100.00;96045.81;10559830;28;2723;-75
2022/10/08 12:06:48;;;;;;;;;;;17.90;99.90;;;17.20;100.00;96051.19;10564854;28;2077;-76
2022/10/08 12:11:51;;;;;;;;;;;17.80;99.90;;;17.40;100.00;96052.59;10561834;28;2626;-75
2022/10/08 12:16:53;;;;;;;;;;;17.90;99.90;;;17.47;100.00;96047.53;10571168;28;2572;-75
2022/10/08 12:21:56;;;;;;;;;;;17.90;99.90;;;17.59;100.00;96050.50;10565313;27;1912;-76
2022/10/08 12:26:59;;;;;;;;;;;18.00;99.90;;;17.55;100.00;96050.28;10568153;28;3363;-77
2022/10/08 12:32:01;;;;;;;;;;;18.10;99.90;;;16.96;100.00;96054.22;10558999;28;2265;-76
2022/10/08 12:37:04;;;;;;;;;;;18.00;99.90;;;16.57;100.00;96041.22;10559175;28;2483;-76
2022/10/08 12:42:08;;;;;;;;;;;17.60;99.90;;;16.38;100.00;96038.63;10542410;28;2611;-75
2022/10/08 12:47:11;;;;;;;;;;;17.30;99.90;;;16.40;100.00;96041.84;10560783;28;2578;-74
2022/10/08 12:52:14;;;;;;;;;;;17.30;99.90;;;16.53;100.00;96049.16;10553111;28;1973;-75
2022/10/08 12:57:17;;;;;;;;;;;17.30;99.90;;;16.47;100.00;96045.75;10566964;28;1980;-76
2022/10/08 13:02:20;;;;;;;;;;;17.20;99.90;;;16.16;100.00;96053.75;10561270;28;1917;-77
2022/10/08 13:07:23;;;;;;;;;;;17.10;99.90;;;16.09;100.00;96058.75;10559482;28;2624;-75
2022/10/08 13:12:25;;;;;;;;;;;16.90;99.90;;;15.97;100.00;96049.50;10544940;28;2617;-75
2022/10/08 13:17:28;;;;;;;;;;;16.80;99.90;;;15.84;100.00;96056.53;10566466;28;2075;-75
2022/10/08 13:22:31;;;;;;;;;;;16.80;99.90;;;15.77;100.00;96072.38;10567780;28;2616;-77
2022/10/08 13:27:34;;;;;;;;;;;16.50;99.90;;;15.14;100.00;96077.22;10561476;28;1969;-75
2022/10/08 13:32:38;;;;;;;;;;;16.30;99.90;;;14.97;100.00;96076.94;10566089;28;1767;-75
2022/10/08 13:37:41;;;;;;;;;;;16.00;99.90;;;14.99;100.00;96071.22;10561937;28;2560;-76
2022/10/08 13:42:46;;;;;;;;;;;;;;;14.77;100.00;96079.94;10572152;27;3115;-76
2022/10/08 13:47:50;;;;;;;;;;;;;;;14.65;100.00;96077.66;10546858;28;2580;-76
2022/10/08 13:52:53;;;;;;;;;;;;;;;14.68;100.00;96089.78;10555313;28;2634;-76
2022/10/08 13:57:58;;;;;;;;;;;;;;;14.61;100.00;96084.75;10555311;28;2562;-74
2022/10/08 14:03:02;;;;;;;;;;;;;;;14.31;100.00;96078.63;10562635;28;2666;-75
2022/10/08 14:08:05;;;;;;;;;;;;;;;14.29;100.00;96085.41;10549554;28;1937;-75
2022/10/08 14:13:08;;;;;;;;;;;;;;;14.19;100.00;96096.34;10556585;28;1933;-76
2022/10/08 14:18:11;;;;;;;;;;;;;;;14.07;100.00;96094.84;10563339;28;2614;-75
2022/10/08 14:23:15;;;;;;;;;;;;;;;14.15;100.00;96103.41;10557058;28;2939;-73
2022/10/08 14:28:18;;;;;;;;;;;;;;;13.89;100.00;96103.69;10563018;28;2616;-75
2022/10/08 14:33:22;;;;;;;;;;;;;;;13.84;100.00;96114.56;10561497;28;1789;-74
2022/10/08 14:38:25;;;;;;;;;;;;;;;13.85;100.00;96109.97;10564689;28;2601;-73
2022/10/08 14:43:28;;;;;;;;;;;;;;;13.72;100.00;96116.84;10562993;28;2579;-73
2022/10/08 14:48:32;;;;;;;;;;;;;;;13.52;100.00;96123.22;10548533;28;1906;-75
2022/10/08 14:53:35;;;;;;;;;;;;;;;13.36;100.00;96125.28;10565741;28;2092;-73
2022/10/08 14:58:39;;;;;;;;;;;;;;;13.38;100.00;96123.09;10561211;28;2616;-73
2022/10/08 15:03:44;;;;;;;;;;;;;;;13.28;100.00;96123.16;10564947;28;2610;-74
2022/10/08 15:08:47;;;;;;;;;;;;;;;13.13;100.00;96120.56;10558433;28;2591;-73
2022/10/08 15:13:51;;;;;;;;;;;;;;;12.99;100.00;96131.97;10561083;28;1874;-75
2022/10/08 15:18:54;;;;;;;;;;;;;;;12.93;100.00;96132.28;10569245;28;2052;-73
2022/10/08 15:24:06;;;;;;;;;;;;;;;13.04;100.00;96139.25;10568573;28;1898;-74
2022/10/08 15:29:10;;;;;;;;;;;;;;;13.02;100.00;96140.59;10565434;28;2757;-73
2022/10/08 15:34:13;;;;;;;;;;;;;;;13.07;100.00;96140.56;10560050;28;2585;-74
2022/10/08 15:39:17;;;;;;;;;;;;;;;13.13;100.00;96144.84;10556183;28;2614;-74
2022/10/08 15:44:20;;;;;;;;;;;;;;;12.99;100.00;96137.38;10538269;28;2635;-73
2022/10/08 15:49:23;;;;;;;;;;;;;;;13.06;100.00;96145.16;10557926;28;2555;-74
2022/10/08 15:54:27;;;;;;;;;;;;;;;13.06;100.00;96155.16;10555398;28;2614;-73
2022/10/08 15:59:31;;;;;;;;;;;;;;;13.06;100.00;96160.53;10550414;28;2603;-75
2022/10/08 16:04:34;;;;;;;;;;;;;;;13.05;100.00;96164.34;10531434;28;2590;-79
2022/10/08 16:09:39;;;;;;;;;;;;;;;12.98;100.00;96161.94;10555960;28;2659;-76
2022/10/08 16:14:42;;;;;;;;;;;;;;;12.96;100.00;96170.28;10568655;28;2599;-74
2022/10/08 16:19:49;;;;;;;;;;;;;;;12.93;100.00;96176.25;10557454;28;2603;-75
2022/10/08 16:24:54;;;;;;;;;;;;;;;12.91;100.00;96175.72;10559776;28;2579;-74
2022/10/08 16:29:58;;;;;;;;;;;;;;;12.96;100.00;96183.78;10570266;28;2551;-72
2022/10/08 16:35:01;;;;;;;;;;;;;;;12.95;100.00;96189.47;10550232;28;2010;-73
2022/10/08 16:40:04;;;;;;;;;;;;;;;12.93;100.00;96195.16;10560433;28;2128;-73
2022/10/08 16:45:07;;;;;;;;;;;;;;;12.87;100.00;96204.34;10560439;28;2643;-73
2022/10/08 16:50:16;;;;;;;;;;;;;;;12.86;100.00;96210.84;10556677;28;2620;-75
2022/10/08 16:55:20;;;;;;;;;;;;;;;12.85;100.00;96225.41;10554256;28;2718;-74
2022/10/08 17:00:33;;;;;;;;;;;;;;;12.75;100.00;96232.75;10562989;28;2682;-74
2022/10/08 17:05:36;;;;;;;;;;;;;;;12.77;100.00;96242.16;10557921;28;2571;-74
2022/10/08 17:10:40;;;;;;;;;;;;;;;12.65;100.00;96249.75;10557622;28;2924;-75
2022/10/08 17:15:43;;;;;;;;;;;;;;;12.60;100.00;96250.59;10560362;28;2584;-75
2022/10/08 17:20:46;;;;;;;;;;;;;;;12.46;100.00;96249.53;10556406;28;2677;-76
2022/10/08 17:25:50;;;;;;;;;;;;;;;12.35;100.00;96262.25;10566226;28;2557;-74
2022/10/08 17:30:53;;;;;;;;;;;;;;;12.28;100.00;96252.81;10564007;28;2637;-75
2022/10/08 17:35:57;;;;;;;;;;;;;;;12.26;100.00;96263.88;10564241;28;1908;-73
2022/10/08 17:41:00;;;;;;;;;;;;;;;12.21;100.00;96271.97;10566026;28;2599;-74
2022/10/08 17:46:04;;;;;;;;;;;;;;;12.22;100.00;96283.56;10562590;28;2572;-75
2022/10/08 17:51:08;;;;;;;;;;;;;;;12.14;100.00;96282.22;10554528;28;2697;-75
2022/10/08 17:56:11;;;;;;;;;;;;;;;12.21;100.00;96293.50;10568900;28;2617;-74
2022/10/08 18:01:14;;;;;;;;;;;;;;;12.09;100.00;96295.72;10551679;28;1980;-74
2022/10/08 18:06:18;;;;;;;;;;;;;;;12.14;100.00;96299.19;10554065;28;1993;-75
2022/10/08 18:11:21;;;;;;;;;;;;;;;12.11;100.00;96296.25;10552010;28;2638;-75
2022/10/08 18:16:25;;;;;;;;;;;;;;;12.11;100.00;96298.94;10553547;28;2634;-76
2022/10/08 18:21:29;;;;;;;;;;;;;;;11.93;100.00;96310.25;10554912;28;2605;-75
2022/10/08 18:26:33;;;;;;;;;;;;;;;11.82;100.00;96318.31;10547324;28;2717;-75
2022/10/08 18:31:38;;;;;;;;;;;;;;;11.78;100.00;96329.88;10553967;28;2589;-76
2022/10/08 18:36:42;;;;;;;;;;;;;;;11.70;100.00;96330.38;10532970;28;1889;-74
2022/10/08 18:41:50;;;;;;;;;;;;;;;11.62;100.00;96350.56;10562016;28;1920;-75
2022/10/08 18:46:53;;;;;;;;;;;;;;;11.47;100.00;96355.91;10562270;28;2628;-74
2022/10/08 18:51:56;;;;;;;;;;;;;;;11.43;100.00;96362.91;10564552;28;2831;-74
2022/10/08 18:57:00;;;;;;;;;;;;;;;11.31;100.00;96360.44;10569059;28;1841;-75
2022/10/08 19:02:03;;;;;;;;;;;;;;;11.17;100.00;96368.19;10560404;28;2699;-75
2022/10/08 19:07:06;;;;;;;;;;;;;;;11.13;100.00;96371.66;10551156;28;2693;-75
2022/10/08 19:12:20;;;;;;;;;;;;;;;11.06;100.00;96391.53;10560797;28;2532;-76
2022/10/08 19:17:25;;;;;;;;;;;;;;;11.10;100.00;96392.63;10545816;28;2611;-74
2022/10/08 19:22:29;;;;;;;;;;;;;;;11.15;100.00;96399.94;10558515;28;2711;-78
2022/10/08 19:27:33;;;;;;;;;;;;;;;11.05;100.00;96403.38;10557743;28;1967;-74
2022/10/08 19:32:36;;;;;;;;;;;;;;;10.96;100.00;96413.00;10562642;28;2663;-75
2022/10/08 19:37:39;;;;;;;;;;;;;;;10.83;100.00;96416.16;10545013;28;1917;-74
2022/10/08 19:42:43;;;;;;;;;;;;;;;10.74;100.00;96433.81;10555785;28;2591;-76
2022/10/08 19:47:47;;;;;;;;;;;;;;;10.69;100.00;96448.06;10554846;28;1964;-76
2022/10/08 19:52:50;;;;;;;;;;;;;;;10.67;100.00;96442.13;10558322;28;2550;-75
2022/10/08 19:57:54;;;;;;;;;;;;;;;10.52;100.00;96455.44;10563979;28;1877;-74
2022/10/08 20:02:58;;;;;;;;;;;;;;;10.52;100.00;96468.88;10575474;27;2951;-74
2022/10/08 20:08:01;;;;;;;;;;;;;;;10.53;100.00;96467.81;10570014;28;2650;-74
2022/10/08 20:13:05;;;;;;;;;;;;;;;10.45;100.00;96465.59;10556229;28;1977;-74
2022/10/08 20:18:08;;;;;;;;;;;;;;;10.38;100.00;96473.06;10563263;28;1816;-74
2022/10/08 20:23:12;;;;;;;;;;;;;;;10.37;100.00;96479.50;10553561;28;2638;-72
2022/10/08 20:28:15;;;;;;;;;;;;;;;10.35;100.00;96476.25;10559834;28;1934;-73
2022/10/08 20:33:20;;;;;;;;;;;;;;;10.33;100.00;96483.78;10563127;28;2615;-74
2022/10/08 20:38:23;;;;;;;;;;;;;;;10.18;100.00;96482.53;10563166;28;2596;-73
2022/10/08 20:43:27;;;;;;;;;;;;;;;10.07;100.00;96488.84;10557901;28;2563;-73
2022/10/08 20:48:30;;;;;;;;;;;;;;;10.17;100.00;96493.50;10567126;28;2017;-74
2022/10/08 20:53:34;;;;;;;;;;;;;;;10.23;100.00;96496.03;10554317;28;2588;-75
2022/10/08 20:58:37;;;;;;;;;;;;;;;10.26;100.00;96500.09;10565708;28;2581;-73
2022/10/08 21:03:42;;;;;;;;;;;;;;;10.34;100.00;96506.88;10562007;28;2629;-72
2022/10/08 21:08:46;;;;;;;;;;;;;;;10.35;100.00;96505.81;10560378;28;1981;-76
2022/10/08 21:13:49;;;;;;;;;;;;;;;10.36;100.00;96499.38;10561535;28;1965;-74
2022/10/08 21:18:52;;;;;;;;;;;;;;;10.32;100.00;96509.03;10570159;28;2578;-75
2022/10/08 21:23:56;;;;;;;;;;;;;;;10.21;100.00;96508.88;10554981;28;2681;-74
2022/10/08 21:28:59;;;;;;;;;;;;;;;10.14;100.00;96513.66;10567403;28;1992;-74
2022/10/08 21:34:03;;;;;;;;;;;;;;;10.16;100.00;96511.50;10558775;28;2096;-75
2022/10/08 21:39:06;;;;;;;;;;;;;;;10.18;100.00;96514.78;10560007;28;2613;-75
2022/10/08 21:44:10;;;;;;;;;;;;;;;10.26;100.00;96505.47;10555099;28;2737;-74
2022/10/08 21:49:13;;;;;;;;;;;;;;;10.33;100.00;96522.19;10568757;28;2595;-75
2022/10/08 21:54:16;;;;;;;;;;;;;;;10.23;100.00;96520.22;10562192;28;1785;-74
2022/10/08 21:59:20;;;;;;;;;;;;;;;10.19;100.00;96519.06;10563515;28;3337;-77
2022/10/08 22:04:23;;;;;;;;;;;;;;;9.93;100.00;96518.00;10550678;28;2572;-75
2022/10/08 22:09:26;;;;;;;;;;;;;;;9.72;100.00;96519.59;10558894;28;2682;-76
2022/10/08 22:14:30;;;;;;;;;;;;;;;9.70;100.00;96523.59;10548435;28;2619;-76
2022/10/08 22:19:33;;;;;;;;;;;;;;;9.51;100.00;96522.28;10557242;28;2647;-75
2022/10/08 22:24:36;;;;;;;;;;;;;;;9.35;100.00;96519.41;10558049;28;1965;-74
2022/10/08 22:29:40;;;;;;;;;;;;;;;9.24;100.00;96525.69;10559442;28;2012;-75
2022/10/08 22:34:44;;;;;;;;;;;;;;;9.23;100.00;96523.25;10553620;28;1937;-75
2022/10/08 22:39:47;;;;;;;;;;;;;;;9.16;100.00;96510.81;10555365;28;2670;-74
2022/10/08 22:44:50;;;;;;;;;;;;;;;9.29;100.00;96516.88;10550643;28;1889;-74
2022/10/08 22:50:02;;;;;;;;;;;;;;;9.28;100.00;96515.25;10564131;28;2062;-74
2022/10/08 22:55:06;;;;;;;;;;;;;;;9.19;100.00;96518.34;10557542;28;2708;-74
2022/10/08 23:00:09;;;;;;;;;;;;;;;9.13;100.00;96513.97;10564200;28;2021;-75
2022/10/08 23:05:18;;;;;;;;;;;;;;;9.02;100.00;96517.56;10564687;28;2618;-75
2022/10/08 23:10:21;;;;;;;;;;;;;;;8.96;100.00;96513.19;10556160;28;2747;-77
2022/10/08 23:15:25;;;;;;;;;;;;;;;8.83;100.00;96518.88;10548557;28;2710;-76
2022/10/08 23:20:28;;;;;;;;;;;;;;;8.72;100.00;96511.75;10558239;28;1956;-76
2022/10/08 23:25:31;;;;;;;;;;;;;;;8.66;100.00;96508.97;10556772;28;2557;-76
2022/10/08 23:30:35;;;;;;;;;;;;;;;8.58;100.00;96508.53;10558187;28;2688;-77
2022/10/08 23:35:45;;;;;;;;;;;;;;;8.55;100.00;96514.41;10564989;28;2644;-78
2022/10/08 23:40:48;;;;;;;;;;;;;;;8.43;100.00;96514.47;10567327;28;2591;-74
2022/10/08 23:45:52;;;;;;;;;;;;;;;8.51;100.00;96506.03;10563762;28;2709;-74
2022/10/08 23:50:56;;;;;;;;;;;;;;;8.50;100.00;96514.31;10563838;28;2654;-74
2022/10/08 23:56:00;;;;;;;;;;;;;;;8.44;100.00;96510.72;10556625;28;2687;-75
